Rechercher aéroport 
image banner adimage banner adimage banner ad
image banner ad

CA19 - Camanche Skypark

Situé à Ione, United States

ICAO - CA19, IATA -

Données fournies par Airmate  

Information générale

Coordonnées: N38°15'50" W120°55'24"
Élévation : 520 feet MSL.
Variation magnétique : 16° East
Voir autres Aéroports à California

Données opérationnelles

Special qualification required
Heure actuelle UTC:
Heure actuelle locale:
METAR: KJAQ 020535Z AUTO 34008KT 10SM CLR 22/06 A3008 RMK AO1 T02170061
Voir NOTAMs / SUP AIP / TFR affectant cet aéroport [VIEW]
Fréquences de communication: [VIEW]

Pistes:

Identifiant RWYQFULongueur (ft)Largeur (ft)SurfaceLDA (ft)
09225030ASPH
27225030ASPH

Coordonnées de l'aéroport

Adresse: Ione United States

Vue satellite de CA19